sensor_id;sensor_type;location;lat;lon;timestamp;temperature;humidity
17007;DHT22;8620;51.168;4.154;2022-10-29T00:01:54;16.50;99.90
17007;DHT22;8620;51.168;4.154;2022-10-29T00:04:25;16.40;99.90
17007;DHT22;8620;51.168;4.154;2022-10-29T00:06:54;16.40;99.90
17007;DHT22;8620;51.168;4.154;2022-10-29T00:09:23;16.50;99.90
17007;DHT22;8620;51.168;4.154;2022-10-29T00:11:49;16.70;99.90
17007;DHT22;8620;51.168;4.154;2022-10-29T00:14:15;16.50;99.90
17007;DHT22;8620;51.168;4.154;2022-10-29T00:16:41;16.30;99.90
17007;DHT22;8620;51.168;4.154;2022-10-29T00:19:07;16.50;99.90
17007;DHT22;8620;51.168;4.154;2022-10-29T00:21:36;16.50;99.90
17007;DHT22;8620;51.168;4.154;2022-10-29T00:24:02;16.50;99.90
17007;DHT22;8620;51.168;4.154;2022-10-29T00:26:28;16.40;99.90
17007;DHT22;8620;51.168;4.154;2022-10-29T00:28:55;16.20;99.90
17007;DHT22;8620;51.168;4.154;2022-10-29T00:31:22;16.20;99.90
17007;DHT22;8620;51.168;4.154;2022-10-29T00:33:49;16.30;99.90
17007;DHT22;8620;51.168;4.154;2022-10-29T00:36:27;16.10;99.90
17007;DHT22;8620;51.168;4.154;2022-10-29T00:38:54;15.90;99.90
17007;DHT22;8620;51.168;4.154;2022-10-29T00:41:24;15.80;99.90
17007;DHT22;8620;51.168;4.154;2022-10-29T00:47:00;16.20;99.90
17007;DHT22;8620;51.168;4.154;2022-10-29T00:49:31;16.00;99.90
17007;DHT22;8620;51.168;4.154;2022-10-29T00:52:02;15.80;99.90
17007;DHT22;8620;51.168;4.154;2022-10-29T00:54:31;15.90;99.90
17007;DHT22;8620;51.168;4.154;2022-10-29T00:57:03;16.00;99.90
17007;DHT22;8620;51.168;4.154;2022-10-29T00:59:33;16.10;99.90
17007;DHT22;8620;51.168;4.154;2022-10-29T01:01:59;16.30;99.90
17007;DHT22;8620;51.168;4.154;2022-10-29T01:04:25;16.20;99.90
17007;DHT22;8620;51.168;4.154;2022-10-29T01:06:51;16.10;99.90
17007;DHT22;8620;51.168;4.154;2022-10-29T01:09:18;16.20;99.90
17007;DHT22;8620;51.168;4.154;2022-10-29T01:14:52;16.20;99.90
17007;DHT22;8620;51.168;4.154;2022-10-29T01:32:21;15.30;99.90
17007;DHT22;8620;51.168;4.154;2022-10-29T01:35:02;15.50;99.90
17007;DHT22;8620;51.168;4.154;2022-10-29T01:40:38;15.80;99.90
17007;DHT22;8620;51.168;4.154;2022-10-29T01:43:16;15.90;99.90
17007;DHT22;8620;51.168;4.154;2022-10-29T01:45:53;16.00;99.90
17007;DHT22;8620;51.168;4.154;2022-10-29T01:48:26;15.90;99.90
17007;DHT22;8620;51.168;4.154;2022-10-29T01:50:59;15.80;99.90
17007;DHT22;8620;51.168;4.154;2022-10-29T01:53:27;15.80;99.90
17007;DHT22;8620;51.168;4.154;2022-10-29T01:55:55;15.70;99.90
17007;DHT22;8620;51.168;4.154;2022-10-29T01:58:23;15.50;99.90
17007;DHT22;8620;51.168;4.154;2022-10-29T02:01:05;15.40;99.90
17007;DHT22;8620;51.168;4.154;2022-10-29T02:06:43;15.60;99.90
17007;DHT22;8620;51.168;4.154;2022-10-29T02:12:51;15.60;99.90
17007;DHT22;8620;51.168;4.154;2022-10-29T02:15:41;15.70;99.90
17007;DHT22;8620;51.168;4.154;2022-10-29T02:18:38;15.70;99.90
17007;DHT22;8620;51.168;4.154;2022-10-29T02:21:49;15.60;99.90
17007;DHT22;8620;51.168;4.154;2022-10-29T02:24:57;15.70;99.90
17007;DHT22;8620;51.168;4.154;2022-10-29T02:27:43;15.70;99.90
17007;DHT22;8620;51.168;4.154;2022-10-29T02:30:31;15.50;99.90
17007;DHT22;8620;51.168;4.154;2022-10-29T02:33:20;15.50;99.90
17007;DHT22;8620;51.168;4.154;2022-10-29T02:36:09;15.50;99.90
17007;DHT22;8620;51.168;4.154;2022-10-29T02:38:58;15.40;99.90
17007;DHT22;8620;51.168;4.154;2022-10-29T02:41:51;15.50;99.90
17007;DHT22;8620;51.168;4.154;2022-10-29T02:44:43;15.50;99.90
17007;DHT22;8620;51.168;4.154;2022-10-29T02:47:40;15.50;99.90
17007;DHT22;8620;51.168;4.154;2022-10-29T02:50:29;15.60;99.90
17007;DHT22;8620;51.168;4.154;2022-10-29T02:53:16;15.70;99.90
17007;DHT22;8620;51.168;4.154;2022-10-29T02:56:07;15.80;99.90
17007;DHT22;8620;51.168;4.154;2022-10-29T02:58:57;15.80;99.90
17007;DHT22;8620;51.168;4.154;2022-10-29T03:01:57;16.10;99.90
17007;DHT22;8620;51.168;4.154;2022-10-29T03:04:51;16.10;99.90
17007;DHT22;8620;51.168;4.154;2022-10-29T03:07:57;16.20;99.90
17007;DHT22;8620;51.168;4.154;2022-10-29T03:11:04;16.10;99.90
17007;DHT22;8620;51.168;4.154;2022-10-29T03:14:07;16.20;99.90
17007;DHT22;8620;51.168;4.154;2022-10-29T03:17:16;16.40;99.90
17007;DHT22;8620;51.168;4.154;2022-10-29T03:20:05;16.30;99.90
17007;DHT22;8620;51.168;4.154;2022-10-29T03:22:57;16.20;99.90
17007;DHT22;8620;51.168;4.154;2022-10-29T03:25:47;16.30;99.90
17007;DHT22;8620;51.168;4.154;2022-10-29T03:28:25;16.30;99.90
17007;DHT22;8620;51.168;4.154;2022-10-29T03:31:19;16.30;99.90
17007;DHT22;8620;51.168;4.154;2022-10-29T03:34:15;16.20;99.90
17007;DHT22;8620;51.168;4.154;2022-10-29T03:37:11;16.30;99.90
17007;DHT22;8620;51.168;4.154;2022-10-29T03:40:06;16.10;99.90
17007;DHT22;8620;51.168;4.154;2022-10-29T03:43:19;16.10;99.90
17007;DHT22;8620;51.168;4.154;2022-10-29T03:46:34;16.20;99.90
17007;DHT22;8620;51.168;4.154;2022-10-29T03:49:21;16.20;99.90
17007;DHT22;8620;51.168;4.154;2022-10-29T03:52:10;16.20;99.90
17007;DHT22;8620;51.168;4.154;2022-10-29T03:55:14;16.40;99.90
17007;DHT22;8620;51.168;4.154;2022-10-29T03:58:21;16.40;99.90
17007;DHT22;8620;51.168;4.154;2022-10-29T04:01:15;16.50;99.90
17007;DHT22;8620;51.168;4.154;2022-10-29T04:03:41;16.50;99.90
17007;DHT22;8620;51.168;4.154;2022-10-29T04:06:14;16.50;99.90
17007;DHT22;8620;51.168;4.154;2022-10-29T04:08:40;16.40;99.90
17007;DHT22;8620;51.168;4.154;2022-10-29T04:11:11;16.40;99.90
17007;DHT22;8620;51.168;4.154;2022-10-29T04:13:37;16.30;99.90
17007;DHT22;8620;51.168;4.154;2022-10-29T04:16:04;16.30;99.90
17007;DHT22;8620;51.168;4.154;2022-10-29T04:18:30;16.20;99.90
17007;DHT22;8620;51.168;4.154;2022-10-29T04:21:00;16.30;99.90
17007;DHT22;8620;51.168;4.154;2022-10-29T04:23:27;16.40;99.90
17007;DHT22;8620;51.168;4.154;2022-10-29T04:25:57;16.40;99.90
17007;DHT22;8620;51.168;4.154;2022-10-29T04:28:24;16.40;99.90
17007;DHT22;8620;51.168;4.154;2022-10-29T04:30:51;16.30;99.90
17007;DHT22;8620;51.168;4.154;2022-10-29T04:33:17;16.40;99.90
17007;DHT22;8620;51.168;4.154;2022-10-29T04:35:44;16.20;99.90
17007;DHT22;8620;51.168;4.154;2022-10-29T04:38:16;16.20;99.90
17007;DHT22;8620;51.168;4.154;2022-10-29T04:40:42;16.30;99.90
17007;DHT22;8620;51.168;4.154;2022-10-29T04:43:08;16.20;99.90
17007;DHT22;8620;51.168;4.154;2022-10-29T04:45:37;16.20;99.90
17007;DHT22;8620;51.168;4.154;2022-10-29T04:48:04;16.20;99.90
17007;DHT22;8620;51.168;4.154;2022-10-29T04:50:31;16.30;99.90
17007;DHT22;8620;51.168;4.154;2022-10-29T04:53:03;16.10;99.90
17007;DHT22;8620;51.168;4.154;2022-10-29T04:55:30;16.10;99.90
17007;DHT22;8620;51.168;4.154;2022-10-29T04:57:59;16.10;99.90
17007;DHT22;8620;51.168;4.154;2022-10-29T05:00:31;16.20;99.90
17007;DHT22;8620;51.168;4.154;2022-10-29T05:02:57;16.40;99.90
17007;DHT22;8620;51.168;4.154;2022-10-29T05:05:23;16.30;99.90
17007;DHT22;8620;51.168;4.154;2022-10-29T05:07:56;16.40;99.90
17007;DHT22;8620;51.168;4.154;2022-10-29T05:10:32;16.50;99.90
17007;DHT22;8620;51.168;4.154;2022-10-29T05:13:04;16.60;99.90
17007;DHT22;8620;51.168;4.154;2022-10-29T05:15:32;16.50;99.90
17007;DHT22;8620;51.168;4.154;2022-10-29T05:18:02;16.60;99.90
17007;DHT22;8620;51.168;4.154;2022-10-29T05:20:36;16.60;99.90
17007;DHT22;8620;51.168;4.154;2022-10-29T05:23:07;16.50;99.90
17007;DHT22;8620;51.168;4.154;2022-10-29T05:25:38;16.50;99.90
17007;DHT22;8620;51.168;4.154;2022-10-29T05:28:16;16.50;99.90
17007;DHT22;8620;51.168;4.154;2022-10-29T05:30:44;16.50;99.90
17007;DHT22;8620;51.168;4.154;2022-10-29T05:33:14;16.70;99.90
17007;DHT22;8620;51.168;4.154;2022-10-29T05:35:41;16.70;99.90
17007;DHT22;8620;51.168;4.154;2022-10-29T05:38:08;16.70;99.90
17007;DHT22;8620;51.168;4.154;2022-10-29T05:40:38;16.70;99.90
17007;DHT22;8620;51.168;4.154;2022-10-29T05:43:05;16.60;99.90
17007;DHT22;8620;51.168;4.154;2022-10-29T05:45:34;16.70;99.90
17007;DHT22;8620;51.168;4.154;2022-10-29T05:48:02;16.60;99.90
17007;DHT22;8620;51.168;4.154;2022-10-29T05:50:29;16.60;99.90
17007;DHT22;8620;51.168;4.154;2022-10-29T05:53:00;16.50;99.90
17007;DHT22;8620;51.168;4.154;2022-10-29T05:55:32;16.60;99.90
17007;DHT22;8620;51.168;4.154;2022-10-29T05:58:03;16.60;99.90
17007;DHT22;8620;51.168;4.154;2022-10-29T06:00:33;16.60;99.90
17007;DHT22;8620;51.168;4.154;2022-10-29T06:03:12;16.40;99.90
17007;DHT22;8620;51.168;4.154;2022-10-29T06:05:40;16.60;99.90
17007;DHT22;8620;51.168;4.154;2022-10-29T06:08:06;16.60;99.90
17007;DHT22;8620;51.168;4.154;2022-10-29T06:10:33;16.60;99.90
17007;DHT22;8620;51.168;4.154;2022-10-29T06:13:01;16.60;99.90
17007;DHT22;8620;51.168;4.154;2022-10-29T06:15:27;16.50;99.90
17007;DHT22;8620;51.168;4.154;2022-10-29T06:17:53;16.40;99.90
17007;DHT22;8620;51.168;4.154;2022-10-29T06:20:20;16.40;99.90
17007;DHT22;8620;51.168;4.154;2022-10-29T06:22:55;16.30;99.90
17007;DHT22;8620;51.168;4.154;2022-10-29T06:25:22;16.30;99.90
17007;DHT22;8620;51.168;4.154;2022-10-29T06:28:10;16.30;99.90
17007;DHT22;8620;51.168;4.154;2022-10-29T06:30:40;16.20;99.90
17007;DHT22;8620;51.168;4.154;2022-10-29T06:33:06;16.10;99.90
17007;DHT22;8620;51.168;4.154;2022-10-29T06:35:32;16.20;99.90
17007;DHT22;8620;51.168;4.154;2022-10-29T06:38:01;16.10;99.90
17007;DHT22;8620;51.168;4.154;2022-10-29T06:40:28;16.20;99.90
17007;DHT22;8620;51.168;4.154;2022-10-29T06:43:04;16.30;99.90
17007;DHT22;8620;51.168;4.154;2022-10-29T06:45:32;16.20;99.90
17007;DHT22;8620;51.168;4.154;2022-10-29T06:47:58;16.30;99.90
17007;DHT22;8620;51.168;4.154;2022-10-29T06:50:25;16.30;99.90
17007;DHT22;8620;51.168;4.154;2022-10-29T06:52:58;16.30;99.90
17007;DHT22;8620;51.168;4.154;2022-10-29T06:55:26;16.40;99.90
17007;DHT22;8620;51.168;4.154;2022-10-29T06:57:57;16.30;99.90
17007;DHT22;8620;51.168;4.154;2022-10-29T07:00:30;16.40;99.90
17007;DHT22;8620;51.168;4.154;2022-10-29T07:03:02;16.30;99.90
17007;DHT22;8620;51.168;4.154;2022-10-29T07:05:30;16.40;99.90
17007;DHT22;8620;51.168;4.154;2022-10-29T07:08:04;16.50;99.90
17007;DHT22;8620;51.168;4.154;2022-10-29T07:10:33;16.60;99.90
17007;DHT22;8620;51.168;4.154;2022-10-29T07:13:07;16.60;99.90
17007;DHT22;8620;51.168;4.154;2022-10-29T07:15:33;16.40;99.90
17007;DHT22;8620;51.168;4.154;2022-10-29T07:18:06;16.30;99.90
17007;DHT22;8620;51.168;4.154;2022-10-29T07:20:53;16.30;99.90
17007;DHT22;8620;51.168;4.154;2022-10-29T07:23:21;16.40;99.90
17007;DHT22;8620;51.168;4.154;2022-10-29T07:25:55;16.40;99.90
17007;DHT22;8620;51.168;4.154;2022-10-29T07:28:48;16.50;99.90
17007;DHT22;8620;51.168;4.154;2022-10-29T07:31:14;16.60;99.90
17007;DHT22;8620;51.168;4.154;2022-10-29T07:34:02;16.70;99.90
17007;DHT22;8620;51.168;4.154;2022-10-29T07:39:46;16.90;99.90
17007;DHT22;8620;51.168;4.154;2022-10-29T07:42:12;17.00;99.90
17007;DHT22;8620;51.168;4.154;2022-10-29T07:47:59;17.10;99.90
17007;DHT22;8620;51.168;4.154;2022-10-29T07:50:43;17.20;99.90
17007;DHT22;8620;51.168;4.154;2022-10-29T07:53:09;17.30;99.90
17007;DHT22;8620;51.168;4.154;2022-10-29T07:56:09;17.20;99.90
17007;DHT22;8620;51.168;4.154;2022-10-29T07:58:58;17.40;99.90
17007;DHT22;8620;51.168;4.154;2022-10-29T08:01:23;17.40;99.90
17007;DHT22;8620;51.168;4.154;2022-10-29T08:04:12;17.20;99.90
17007;DHT22;8620;51.168;4.154;2022-10-29T08:06:46;17.30;99.90
17007;DHT22;8620;51.168;4.154;2022-10-29T08:09:17;17.50;99.90
17007;DHT22;8620;51.168;4.154;2022-10-29T08:11:48;17.40;99.90
17007;DHT22;8620;51.168;4.154;2022-10-29T08:14:17;17.30;99.90
17007;DHT22;8620;51.168;4.154;2022-10-29T08:16:52;17.60;99.90
17007;DHT22;8620;51.168;4.154;2022-10-29T08:19:27;17.70;99.90
17007;DHT22;8620;51.168;4.154;2022-10-29T08:22:01;17.80;99.90
17007;DHT22;8620;51.168;4.154;2022-10-29T08:24:30;18.00;99.90
17007;DHT22;8620;51.168;4.154;2022-10-29T08:26:56;18.30;99.90
17007;DHT22;8620;51.168;4.154;2022-10-29T08:29:22;18.40;99.90
17007;DHT22;8620;51.168;4.154;2022-10-29T08:31:51;18.50;99.90
17007;DHT22;8620;51.168;4.154;2022-10-29T08:34:27;18.60;99.90
17007;DHT22;8620;51.168;4.154;2022-10-29T08:37:04;18.70;99.90
17007;DHT22;8620;51.168;4.154;2022-10-29T08:39:36;18.80;99.90
17007;DHT22;8620;51.168;4.154;2022-10-29T08:45:07;18.50;99.90
17007;DHT22;8620;51.168;4.154;2022-10-29T08:47:54;18.50;99.90
17007;DHT22;8620;51.168;4.154;2022-10-29T08:50:33;18.60;99.90
17007;DHT22;8620;51.168;4.154;2022-10-29T08:53:18;18.80;99.90
17007;DHT22;8620;51.168;4.154;2022-10-29T08:56:09;18.80;99.90
17007;DHT22;8620;51.168;4.154;2022-10-29T09:01:30;19.00;99.90
17007;DHT22;8620;51.168;4.154;2022-10-29T09:03:56;19.00;99.90
17007;DHT22;8620;51.168;4.154;2022-10-29T09:09:45;19.40;99.90
17007;DHT22;8620;51.168;4.154;2022-10-29T09:12:55;19.40;99.90
17007;DHT22;8620;51.168;4.154;2022-10-29T09:24:30;19.50;99.90
17007;DHT22;8620;51.168;4.154;2022-10-29T09:27:18;19.60;99.90
17007;DHT22;8620;51.168;4.154;2022-10-29T09:30:29;19.60;99.90
17007;DHT22;8620;51.168;4.154;2022-10-29T09:33:19;20.00;99.90
17007;DHT22;8620;51.168;4.154;2022-10-29T09:35:54;20.60;99.90
17007;DHT22;8620;51.168;4.154;2022-10-29T09:38:28;20.80;99.90
17007;DHT22;8620;51.168;4.154;2022-10-29T09:41:01;21.30;99.90
17007;DHT22;8620;51.168;4.154;2022-10-29T09:43:49;21.50;99.90
17007;DHT22;8620;51.168;4.154;2022-10-29T09:47:27;21.80;99.90
17007;DHT22;8620;51.168;4.154;2022-10-29T09:52:41;22.30;99.90
17007;DHT22;8620;51.168;4.154;2022-10-29T09:55:22;22.30;99.90
17007;DHT22;8620;51.168;4.154;2022-10-29T09:58:00;23.00;99.90
17007;DHT22;8620;51.168;4.154;2022-10-29T10:01:05;23.00;99.90
17007;DHT22;8620;51.168;4.154;2022-10-29T10:03:56;22.70;99.90
17007;DHT22;8620;51.168;4.154;2022-10-29T10:06:24;23.20;99.90
17007;DHT22;8620;51.168;4.154;2022-10-29T10:11:57;24.00;99.90
17007;DHT22;8620;51.168;4.154;2022-10-29T10:15:02;24.00;99.90
17007;DHT22;8620;51.168;4.154;2022-10-29T10:17:57;23.70;99.90
17007;DHT22;8620;51.168;4.154;2022-10-29T10:20:39;23.00;99.90
17007;DHT22;8620;51.168;4.154;2022-10-29T10:33:24;23.00;99.90
17007;DHT22;8620;51.168;4.154;2022-10-29T10:36:24;23.20;99.90
17007;DHT22;8620;51.168;4.154;2022-10-29T10:38:58;23.50;99.90
17007;DHT22;8620;51.168;4.154;2022-10-29T10:41:29;24.10;99.90
17007;DHT22;8620;51.168;4.154;2022-10-29T10:44:01;24.10;99.90
17007;DHT22;8620;51.168;4.154;2022-10-29T10:46:34;24.20;99.90
17007;DHT22;8620;51.168;4.154;2022-10-29T10:49:16;24.20;99.90
17007;DHT22;8620;51.168;4.154;2022-10-29T10:51:50;24.40;99.90
17007;DHT22;8620;51.168;4.154;2022-10-29T11:05:29;24.60;99.90
17007;DHT22;8620;51.168;4.154;2022-10-29T11:17:23;25.20;99.90
17007;DHT22;8620;51.168;4.154;2022-10-29T11:20:30;25.30;99.90
17007;DHT22;8620;51.168;4.154;2022-10-29T11:35:18;25.20;99.90
17007;DHT22;8620;51.168;4.154;2022-10-29T11:43:58;25.60;99.90
17007;DHT22;8620;51.168;4.154;2022-10-29T11:55:22;25.70;99.90
17007;DHT22;8620;51.168;4.154;2022-10-29T12:01:36;25.70;99.90
17007;DHT22;8620;51.168;4.154;2022-10-29T12:04:40;25.30;99.90
17007;DHT22;8620;51.168;4.154;2022-10-29T12:11:02;25.70;99.90
17007;DHT22;8620;51.168;4.154;2022-10-29T12:17:10;26.20;99.90
17007;DHT22;8620;51.168;4.154;2022-10-29T12:26:41;25.50;99.90
17007;DHT22;8620;51.168;4.154;2022-10-29T12:32:14;25.60;99.90
17007;DHT22;8620;51.168;4.154;2022-10-29T12:35:17;25.50;99.90
17007;DHT22;8620;51.168;4.154;2022-10-29T12:41:45;25.20;99.90
17007;DHT22;8620;51.168;4.154;2022-10-29T12:47:23;25.20;99.90
17007;DHT22;8620;51.168;4.154;2022-10-29T12:59:46;25.30;99.90
17007;DHT22;8620;51.168;4.154;2022-10-29T13:05:13;25.80;99.90
17007;DHT22;8620;51.168;4.154;2022-10-29T13:13:55;26.20;99.90
17007;DHT22;8620;51.168;4.154;2022-10-29T13:16:35;26.20;99.90
17007;DHT22;8620;51.168;4.154;2022-10-29T13:21:59;26.80;99.90
17007;DHT22;8620;51.168;4.154;2022-10-29T13:24:33;26.80;99.90
17007;DHT22;8620;51.168;4.154;2022-10-29T13:30:19;26.50;99.90
17007;DHT22;8620;51.168;4.154;2022-10-29T13:32:55;26.00;99.90
17007;DHT22;8620;51.168;4.154;2022-10-29T13:37:49;25.50;99.90
17007;DHT22;8620;51.168;4.154;2022-10-29T13:43:14;25.50;99.90
17007;DHT22;8620;51.168;4.154;2022-10-29T13:45:46;25.30;99.90
17007;DHT22;8620;51.168;4.154;2022-10-29T13:48:28;25.30;99.90
17007;DHT22;8620;51.168;4.154;2022-10-29T13:50:57;25.40;99.90
17007;DHT22;8620;51.168;4.154;2022-10-29T13:53:50;25.60;99.90
17007;DHT22;8620;51.168;4.154;2022-10-29T13:56:50;25.50;99.90
17007;DHT22;8620;51.168;4.154;2022-10-29T13:59:41;25.50;99.90
17007;DHT22;8620;51.168;4.154;2022-10-29T14:08:33;25.40;99.90
17007;DHT22;8620;51.168;4.154;2022-10-29T14:14:13;25.30;99.90
17007;DHT22;8620;51.168;4.154;2022-10-29T14:17:49;25.30;99.90
17007;DHT22;8620;51.168;4.154;2022-10-29T14:20:29;25.20;99.90
17007;DHT22;8620;51.168;4.154;2022-10-29T14:23:06;25.10;99.90
17007;DHT22;8620;51.168;4.154;2022-10-29T14:25:35;25.00;99.90
17007;DHT22;8620;51.168;4.154;2022-10-29T14:28:23;24.90;99.90
17007;DHT22;8620;51.168;4.154;2022-10-29T14:31:16;24.70;99.90
17007;DHT22;8620;51.168;4.154;2022-10-29T14:36:39;24.70;99.90
17007;DHT22;8620;51.168;4.154;2022-10-29T14:42:39;24.70;99.90
17007;DHT22;8620;51.168;4.154;2022-10-29T14:45:17;24.70;99.90
17007;DHT22;8620;51.168;4.154;2022-10-29T14:48:01;24.70;99.90
17007;DHT22;8620;51.168;4.154;2022-10-29T14:51:01;24.60;99.90
17007;DHT22;8620;51.168;4.154;2022-10-29T14:53:54;24.60;99.90
17007;DHT22;8620;51.168;4.154;2022-10-29T14:56:54;24.70;99.90
17007;DHT22;8620;51.168;4.154;2022-10-29T14:59:27;24.60;99.90
17007;DHT22;8620;51.168;4.154;2022-10-29T15:01:57;24.60;99.90
17007;DHT22;8620;51.168;4.154;2022-10-29T15:04:28;24.40;99.90
17007;DHT22;8620;51.168;4.154;2022-10-29T15:10:19;24.30;99.90
17007;DHT22;8620;51.168;4.154;2022-10-29T15:12:48;24.40;99.90
17007;DHT22;8620;51.168;4.154;2022-10-29T15:20:25;24.10;99.90
17007;DHT22;8620;51.168;4.154;2022-10-29T15:22:58;24.00;99.90
17007;DHT22;8620;51.168;4.154;2022-10-29T15:25:34;23.90;99.90
17007;DHT22;8620;51.168;4.154;2022-10-29T15:28:02;23.80;99.90
17007;DHT22;8620;51.168;4.154;2022-10-29T15:30:34;23.80;99.90
17007;DHT22;8620;51.168;4.154;2022-10-29T15:33:03;23.80;99.90
17007;DHT22;8620;51.168;4.154;2022-10-29T15:35:33;23.70;99.90
17007;DHT22;8620;51.168;4.154;2022-10-29T15:38:14;23.60;99.90
17007;DHT22;8620;51.168;4.154;2022-10-29T15:43:55;23.50;99.90
17007;DHT22;8620;51.168;4.154;2022-10-29T15:46:26;23.40;99.90
17007;DHT22;8620;51.168;4.154;2022-10-29T15:49:00;23.40;99.90
17007;DHT22;8620;51.168;4.154;2022-10-29T15:51:31;23.30;99.90
17007;DHT22;8620;51.168;4.154;2022-10-29T15:54:00;23.20;99.90
17007;DHT22;8620;51.168;4.154;2022-10-29T15:56:27;23.20;99.90
17007;DHT22;8620;51.168;4.154;2022-10-29T15:58:56;23.10;99.90
17007;DHT22;8620;51.168;4.154;2022-10-29T16:01:29;23.00;99.90
17007;DHT22;8620;51.168;4.154;2022-10-29T16:03:54;22.90;99.90
17007;DHT22;8620;51.168;4.154;2022-10-29T16:06:32;22.80;99.90
17007;DHT22;8620;51.168;4.154;2022-10-29T16:09:08;22.90;99.90
17007;DHT22;8620;51.168;4.154;2022-10-29T16:11:40;22.80;99.90
17007;DHT22;8620;51.168;4.154;2022-10-29T16:14:08;22.70;99.90
17007;DHT22;8620;51.168;4.154;2022-10-29T16:16:37;22.60;99.90
17007;DHT22;8620;51.168;4.154;2022-10-29T16:19:03;22.60;99.90
17007;DHT22;8620;51.168;4.154;2022-10-29T16:21:29;22.50;99.90
17007;DHT22;8620;51.168;4.154;2022-10-29T16:23:55;22.30;99.90
17007;DHT22;8620;51.168;4.154;2022-10-29T16:26:22;22.30;99.90
17007;DHT22;8620;51.168;4.154;2022-10-29T16:28:49;22.20;99.90
17007;DHT22;8620;51.168;4.154;2022-10-29T16:33:48;22.10;99.90
17007;DHT22;8620;51.168;4.154;2022-10-29T16:36:20;22.20;99.90
17007;DHT22;8620;51.168;4.154;2022-10-29T16:38:46;22.30;99.90
17007;DHT22;8620;51.168;4.154;2022-10-29T16:41:17;22.20;99.90
17007;DHT22;8620;51.168;4.154;2022-10-29T16:43:53;22.00;99.90
17007;DHT22;8620;51.168;4.154;2022-10-29T16:46:19;22.00;99.90
17007;DHT22;8620;51.168;4.154;2022-10-29T16:48:47;21.90;99.90
17007;DHT22;8620;51.168;4.154;2022-10-29T16:51:22;21.90;99.90
17007;DHT22;8620;51.168;4.154;2022-10-29T16:53:56;21.90;99.90
17007;DHT22;8620;51.168;4.154;2022-10-29T16:56:27;21.80;99.90
17007;DHT22;8620;51.168;4.154;2022-10-29T16:58:58;21.80;99.90
17007;DHT22;8620;51.168;4.154;2022-10-29T17:01:27;21.80;99.90
17007;DHT22;8620;51.168;4.154;2022-10-29T17:04:30;21.70;99.90
17007;DHT22;8620;51.168;4.154;2022-10-29T17:07:25;21.80;99.90
17007;DHT22;8620;51.168;4.154;2022-10-29T17:10:14;21.70;99.90
17007;DHT22;8620;51.168;4.154;2022-10-29T17:13:00;21.60;99.90
17007;DHT22;8620;51.168;4.154;2022-10-29T17:15:55;21.50;99.90
17007;DHT22;8620;51.168;4.154;2022-10-29T17:18:43;21.30;99.90
17007;DHT22;8620;51.168;4.154;2022-10-29T17:21:39;21.40;99.90
17007;DHT22;8620;51.168;4.154;2022-10-29T17:24:25;21.40;99.90
17007;DHT22;8620;51.168;4.154;2022-10-29T17:27:26;21.30;99.90
17007;DHT22;8620;51.168;4.154;2022-10-29T17:30:19;21.30;99.90
17007;DHT22;8620;51.168;4.154;2022-10-29T17:33:17;21.30;99.90
17007;DHT22;8620;51.168;4.154;2022-10-29T17:36:10;21.30;99.90
17007;DHT22;8620;51.168;4.154;2022-10-29T17:38:57;21.20;99.90
17007;DHT22;8620;51.168;4.154;2022-10-29T17:41:25;21.20;99.90
17007;DHT22;8620;51.168;4.154;2022-10-29T17:43:53;21.10;99.90
17007;DHT22;8620;51.168;4.154;2022-10-29T17:46:30;21.10;99.90
17007;DHT22;8620;51.168;4.154;2022-10-29T17:49:26;21.10;99.90
17007;DHT22;8620;51.168;4.154;2022-10-29T17:52:14;21.00;99.90
17007;DHT22;8620;51.168;4.154;2022-10-29T17:55:23;20.90;99.90
17007;DHT22;8620;51.168;4.154;2022-10-29T17:57:56;21.00;99.90
17007;DHT22;8620;51.168;4.154;2022-10-29T18:00:25;20.90;99.90
17007;DHT22;8620;51.168;4.154;2022-10-29T18:03:14;20.90;99.90
17007;DHT22;8620;51.168;4.154;2022-10-29T18:05:51;20.90;99.90
17007;DHT22;8620;51.168;4.154;2022-10-29T18:08:30;20.90;99.90
17007;DHT22;8620;51.168;4.154;2022-10-29T18:13:54;20.80;99.90
17007;DHT22;8620;51.168;4.154;2022-10-29T18:16:55;20.70;99.90
17007;DHT22;8620;51.168;4.154;2022-10-29T18:20:08;20.70;99.90
17007;DHT22;8620;51.168;4.154;2022-10-29T18:23:06;20.60;99.90
17007;DHT22;8620;51.168;4.154;2022-10-29T18:26:05;20.60;99.90
17007;DHT22;8620;51.168;4.154;2022-10-29T18:29:03;20.60;99.90
17007;DHT22;8620;51.168;4.154;2022-10-29T18:31:56;20.60;99.90
17007;DHT22;8620;51.168;4.154;2022-10-29T18:34:47;20.50;99.90
17007;DHT22;8620;51.168;4.154;2022-10-29T18:37:57;20.60;99.90
17007;DHT22;8620;51.168;4.154;2022-10-29T18:40:37;20.60;99.90
17007;DHT22;8620;51.168;4.154;2022-10-29T18:43:41;20.60;99.90
17007;DHT22;8620;51.168;4.154;2022-10-29T18:46:30;20.50;99.90
17007;DHT22;8620;51.168;4.154;2022-10-29T18:49:08;20.50;99.90
17007;DHT22;8620;51.168;4.154;2022-10-29T18:51:56;20.40;99.90
17007;DHT22;8620;51.168;4.154;2022-10-29T18:55:09;20.30;99.90
17007;DHT22;8620;51.168;4.154;2022-10-29T18:57:57;20.40;99.90
17007;DHT22;8620;51.168;4.154;2022-10-29T19:00:52;20.40;99.90
17007;DHT22;8620;51.168;4.154;2022-10-29T19:03:48;20.40;99.90
17007;DHT22;8620;51.168;4.154;2022-10-29T19:06:46;20.40;99.90
17007;DHT22;8620;51.168;4.154;2022-10-29T19:09:41;20.40;99.90
17007;DHT22;8620;51.168;4.154;2022-10-29T19:12:33;20.40;99.90
17007;DHT22;8620;51.168;4.154;2022-10-29T19:15:25;20.20;99.90
17007;DHT22;8620;51.168;4.154;2022-10-29T19:18:18;20.20;99.90
17007;DHT22;8620;51.168;4.154;2022-10-29T19:24:36;20.20;99.90
17007;DHT22;8620;51.168;4.154;2022-10-29T19:27:42;20.20;99.90
17007;DHT22;8620;51.168;4.154;2022-10-29T19:30:25;20.20;99.90
17007;DHT22;8620;51.168;4.154;2022-10-29T19:33:19;20.20;99.90
17007;DHT22;8620;51.168;4.154;2022-10-29T19:36:18;20.10;99.90
17007;DHT22;8620;51.168;4.154;2022-10-29T19:39:28;20.00;99.90
17007;DHT22;8620;51.168;4.154;2022-10-29T19:42:34;19.90;99.90
17007;DHT22;8620;51.168;4.154;2022-10-29T19:45:21;20.00;99.90
17007;DHT22;8620;51.168;4.154;2022-10-29T19:51:44;19.90;99.90
17007;DHT22;8620;51.168;4.154;2022-10-29T19:54:40;19.90;99.90
17007;DHT22;8620;51.168;4.154;2022-10-29T19:57:55;19.80;99.90
17007;DHT22;8620;51.168;4.154;2022-10-29T20:01:01;19.80;99.90
17007;DHT22;8620;51.168;4.154;2022-10-29T20:04:08;19.80;99.90
17007;DHT22;8620;51.168;4.154;2022-10-29T20:07:08;19.90;99.90
17007;DHT22;8620;51.168;4.154;2022-10-29T20:10:33;19.80;99.90
17007;DHT22;8620;51.168;4.154;2022-10-29T20:13:39;19.60;99.90
17007;DHT22;8620;51.168;4.154;2022-10-29T20:16:30;19.40;99.90
17007;DHT22;8620;51.168;4.154;2022-10-29T20:19:13;19.30;99.90
17007;DHT22;8620;51.168;4.154;2022-10-29T20:22:28;19.30;99.90
17007;DHT22;8620;51.168;4.154;2022-10-29T20:25:38;19.40;99.90
17007;DHT22;8620;51.168;4.154;2022-10-29T20:28:25;19.30;99.90
17007;DHT22;8620;51.168;4.154;2022-10-29T20:34:34;19.10;99.90
17007;DHT22;8620;51.168;4.154;2022-10-29T20:37:44;19.00;99.90
17007;DHT22;8620;51.168;4.154;2022-10-29T20:40:57;18.90;99.90
17007;DHT22;8620;51.168;4.154;2022-10-29T20:44:07;18.90;99.90
17007;DHT22;8620;51.168;4.154;2022-10-29T20:50:33;19.00;99.90